createdAt,value
2018-03-04T00:01:46.181Z,93968.31
2018-03-04T00:04:17.908Z,93970.73
2018-03-04T00:06:49.230Z,93973.98
2018-03-04T00:09:18.454Z,93976.20
2018-03-04T00:11:47.615Z,93964.95
2018-03-04T00:14:16.964Z,93962.81
2018-03-04T00:16:46.152Z,93973.02
2018-03-04T00:19:15.368Z,93973.96
2018-03-04T00:21:44.539Z,93967.20
2018-03-04T00:24:14.851Z,93968.69
2018-03-04T00:26:44.737Z,93970.97
2018-03-04T00:29:17.859Z,93981.56
2018-03-04T00:31:47.359Z,93979.70
2018-03-04T00:34:16.933Z,93976.11
2018-03-04T00:39:24.304Z,93981.42
2018-03-04T00:42:17.013Z,93990.87
2018-03-04T00:44:46.516Z,93995.48
2018-03-04T00:47:16.663Z,93988.58
2018-03-04T00:52:21.576Z,94005.20
2018-03-04T00:54:59.291Z,94010.26
2018-03-04T00:57:28.457Z,94015.20
2018-03-04T00:59:58.655Z,94015.35
2018-03-04T01:02:27.841Z,94016.92
2018-03-04T01:07:35.187Z,94018.50
2018-03-04T01:15:22.001Z,94024.10
2018-03-04T01:17:54.607Z,94018.73
2018-03-04T01:20:23.823Z,94020.48
2018-03-04T01:22:53.087Z,94022.38
2018-03-04T01:25:22.251Z,94023.67
2018-03-04T01:30:32.588Z,94026.72
2018-03-04T01:33:01.747Z,94024.07
2018-03-04T01:35:30.934Z,94024.02
2018-03-04T01:38:01.079Z,94025.94
2018-03-04T01:40:30.252Z,94028.86
2018-03-04T01:45:36.080Z,94040.27
2018-03-04T01:48:10.995Z,94047.02
2018-03-04T01:50:45.125Z,94049.39
2018-03-04T01:53:31.784Z,94050.31
2018-03-04T01:56:02.971Z,94050.98
2018-03-04T01:58:32.267Z,94054.66
2018-03-04T02:01:02.371Z,94052.55
2018-03-04T02:03:31.590Z,94058.63
2018-03-04T02:08:37.907Z,94058.08
2018-03-04T02:11:10.037Z,94060.73
2018-03-04T02:13:39.349Z,94054.45
2018-03-04T02:18:46.669Z,94052.34
2018-03-04T02:21:26.708Z,94050.84
2018-03-04T02:23:55.873Z,94055.00
2018-03-04T02:26:28.174Z,94057.48
2018-03-04T02:28:57.398Z,94055.66
2018-03-04T02:31:30.831Z,94057.16
2018-03-04T02:41:46.739Z,94058.75
2018-03-04T02:46:55.626Z,94049.13
2018-03-04T02:49:25.800Z,94052.56
2018-03-04T02:51:54.977Z,94058.16
2018-03-04T02:57:15.179Z,94045.84
2018-03-04T02:59:44.400Z,94050.02
2018-03-04T03:04:53.158Z,94051.38
2018-03-04T03:07:34.419Z,94054.98
2018-03-04T03:12:39.246Z,94061.92
2018-03-04T03:17:50.458Z,94050.59
2018-03-04T03:20:19.647Z,94047.46
2018-03-04T03:22:56.959Z,94043.59
2018-03-04T03:25:32.042Z,94040.58
2018-03-04T03:28:01.209Z,94045.83
2018-03-04T03:30:51.899Z,94042.36
2018-03-04T03:33:22.005Z,94040.75
2018-03-04T03:36:00.901Z,94038.98
2018-03-04T03:38:33.823Z,94038.83
2018-03-04T03:41:03.002Z,94037.69
2018-03-04T03:43:40.777Z,94029.80
2018-03-04T03:46:09.965Z,94029.67
2018-03-04T03:48:39.123Z,94029.34
2018-03-04T03:51:08.327Z,94029.32
2018-03-04T03:54:00.669Z,94028.05
2018-03-04T03:59:09.623Z,94029.00
2018-03-04T04:01:38.760Z,94029.68
2018-03-04T04:04:07.976Z,94033.78
2018-03-04T04:09:14.319Z,94031.42
2018-03-04T04:11:43.546Z,94020.70
2018-03-04T04:14:12.700Z,94022.82
2018-03-04T04:16:50.275Z,94018.36
2018-03-04T04:19:19.476Z,94026.59
2018-03-04T04:21:52.072Z,94028.95
2018-03-04T04:24:35.558Z,94028.23
2018-03-04T04:27:04.723Z,94026.71
2018-03-04T04:30:02.012Z,94023.50
2018-03-04T04:32:31.214Z,94026.00
2018-03-04T04:35:00.384Z,94022.09
2018-03-04T04:37:42.028Z,94024.38
2018-03-04T04:40:11.194Z,94019.09
2018-03-04T04:45:17.561Z,94017.70
2018-03-04T04:47:52.219Z,94018.50
2018-03-04T04:50:21.431Z,94025.05
2018-03-04T04:52:50.622Z,94020.35
2018-03-04T04:55:19.778Z,94020.80
2018-03-04T04:57:48.948Z,94023.30
2018-03-04T05:02:55.246Z,94025.91
2018-03-04T05:05:24.411Z,94029.26
2018-03-04T05:07:53.591Z,94029.80
2018-03-04T05:12:58.011Z,94026.28
2018-03-04T05:15:27.179Z,94017.30
2018-03-04T05:18:04.695Z,94007.20
2018-03-04T05:20:33.882Z,94004.20
2018-03-04T05:23:10.300Z,94008.91
2018-03-04T05:25:39.464Z,94007.39
2018-03-04T05:30:50.175Z,94009.82
2018-03-04T05:33:19.368Z,94012.64
2018-03-04T05:38:37.091Z,94018.17
2018-03-04T05:41:07.295Z,94020.09
2018-03-04T05:43:37.420Z,94021.98
2018-03-04T05:46:14.714Z,94026.28
2018-03-04T05:48:48.295Z,94024.09
2018-03-04T05:53:55.693Z,94021.06
2018-03-04T05:56:24.830Z,94016.38
2018-03-04T05:59:23.109Z,94020.01
2018-03-04T06:01:52.280Z,94019.47
2018-03-04T06:04:21.488Z,94028.94
2018-03-04T06:06:54.498Z,94028.74
2018-03-04T06:09:24.586Z,94025.33
2018-03-04T06:11:55.716Z,94026.34
2018-03-04T06:14:24.888Z,94028.05
2018-03-04T06:16:54.231Z,94021.34
2018-03-04T06:19:23.440Z,94027.54
2018-03-04T06:24:33.543Z,94035.83
2018-03-04T06:27:02.743Z,94025.52
2018-03-04T06:29:31.904Z,94029.39
2018-03-04T06:32:24.386Z,94033.67
2018-03-04T06:34:53.602Z,94031.59
2018-03-04T06:40:05.319Z,94031.50
2018-03-04T06:42:34.475Z,94031.17
2018-03-04T06:45:03.680Z,94033.51
2018-03-04T06:47:33.741Z,94030.97
2018-03-04T06:50:02.952Z,94021.73
2018-03-04T06:52:32.179Z,94022.35
2018-03-04T06:55:01.408Z,94026.36
2018-03-04T06:57:35.336Z,94024.36
2018-03-04T07:00:04.615Z,94013.88
2018-03-04T07:02:34.723Z,94014.20
2018-03-04T07:05:03.934Z,94019.22
2018-03-04T07:07:40.463Z,94017.31
2018-03-04T07:12:45.927Z,94014.70
2018-03-04T07:20:48.815Z,94031.41
2018-03-04T07:23:18.205Z,94033.54
2018-03-04T07:25:47.380Z,94038.26
2018-03-04T07:28:25.768Z,94044.28
2018-03-04T07:30:54.936Z,94045.36
2018-03-04T07:33:26.643Z,94044.07
2018-03-04T07:35:55.841Z,94039.56
2018-03-04T07:38:24.976Z,94033.35
2018-03-04T07:40:54.184Z,94027.88
2018-03-04T07:43:25.503Z,94020.66
2018-03-04T07:45:54.707Z,94023.66
2018-03-04T07:48:24.845Z,94025.33
2018-03-04T07:50:54.029Z,94027.69
2018-03-04T07:53:25.432Z,94019.95
2018-03-04T07:55:54.602Z,94021.80
2018-03-04T07:58:23.820Z,94016.88
2018-03-04T08:00:52.982Z,94017.42
2018-03-04T08:03:22.233Z,94016.72
2018-03-04T08:05:51.363Z,94016.94
2018-03-04T08:08:20.527Z,94017.44
2018-03-04T08:10:54.222Z,94010.33
2018-03-04T08:13:23.432Z,94005.84
2018-03-04T08:15:52.575Z,94013.02
2018-03-04T08:18:22.736Z,94008.93
2018-03-04T08:20:51.909Z,94006.62
2018-03-04T08:23:22.040Z,93996.00
2018-03-04T08:25:51.212Z,93997.52
2018-03-04T08:28:35.561Z,93994.47
2018-03-04T08:31:05.886Z,93994.28
2018-03-04T08:33:35.053Z,93999.53
2018-03-04T08:36:05.167Z,93993.02
2018-03-04T08:38:34.344Z,93983.36
2018-03-04T08:41:03.527Z,93977.25
2018-03-04T08:43:40.359Z,93976.67
2018-03-04T08:46:09.580Z,93975.31
2018-03-04T08:48:39.192Z,93980.92
2018-03-04T08:51:12.712Z,93981.30
2018-03-04T08:56:22.854Z,93979.31
2018-03-04T08:58:56.924Z,93986.44
2018-03-04T09:01:31.199Z,93982.38
2018-03-04T09:04:09.596Z,93977.64
2018-03-04T09:19:49.038Z,93947.22
2018-03-04T09:22:19.352Z,93948.52
2018-03-04T09:24:49.651Z,93952.67
2018-03-04T09:27:18.817Z,93948.94
2018-03-04T09:29:49.999Z,93940.20
2018-03-04T09:32:19.173Z,93932.27
2018-03-04T09:37:23.560Z,93924.25
2018-03-04T09:39:52.809Z,93922.45
2018-03-04T09:42:21.977Z,93919.84
2018-03-04T09:44:51.156Z,93916.43
2018-03-04T09:47:20.332Z,93917.05
2018-03-04T09:49:49.536Z,93921.64
2018-03-04T09:52:19.620Z,93926.75
2018-03-04T09:54:50.882Z,93921.45
2018-03-04T09:57:20.043Z,93925.03
2018-03-04T09:59:49.240Z,93932.02
2018-03-04T10:02:18.407Z,93918.27
2018-03-04T10:07:23.903Z,93914.69
2018-03-04T10:09:53.115Z,93913.94
2018-03-04T10:12:22.317Z,93898.50
2018-03-04T10:14:51.492Z,93895.53
2018-03-04T10:17:20.660Z,93895.25
2018-03-04T10:19:49.834Z,93894.59
2018-03-04T10:22:19.011Z,93894.00
2018-03-04T10:24:48.218Z,93896.89
2018-03-04T10:27:17.384Z,93890.70
2018-03-04T10:29:46.532Z,93892.12
2018-03-04T10:32:17.695Z,93890.89
2018-03-04T10:34:46.849Z,93878.98
2018-03-04T10:37:16.082Z,93875.53
2018-03-04T10:39:46.148Z,93877.41
2018-03-04T10:44:52.698Z,93866.88
2018-03-04T10:47:21.899Z,93863.34
2018-03-04T10:49:51.093Z,93851.61
2018-03-04T10:52:20.304Z,93846.38
2018-03-04T10:57:24.739Z,93835.86
2018-03-04T11:02:35.831Z,93829.25
2018-03-04T11:05:05.128Z,93827.06
2018-03-04T11:07:34.320Z,93822.97
2018-03-04T11:10:03.640Z,93822.53
2018-03-04T11:12:32.798Z,93807.86
2018-03-04T11:15:01.972Z,93796.45
2018-03-04T11:17:31.200Z,93796.89
2018-03-04T11:20:00.340Z,93794.19
2018-03-04T11:22:30.057Z,93792.62
2018-03-04T11:25:05.201Z,93784.55
2018-03-04T11:30:09.645Z,93787.77
2018-03-04T11:35:14.154Z,93786.66
2018-03-04T11:37:43.398Z,93789.83
2018-03-04T11:40:12.573Z,93789.72
2018-03-04T11:42:41.760Z,93790.88
2018-03-04T11:45:10.915Z,93784.05
2018-03-04T11:47:40.084Z,93781.09
2018-03-04T11:50:10.157Z,93778.98
2018-03-04T11:52:39.315Z,93777.45
2018-03-04T11:55:08.484Z,93770.68
2018-03-04T11:57:37.717Z,93771.20
2018-03-04T12:00:06.887Z,93776.49
2018-03-04T12:02:36.108Z,93775.15
2018-03-04T12:05:05.330Z,93778.06
2018-03-04T12:10:13.433Z,93775.56
2018-03-04T12:12:42.621Z,93770.02
2018-03-04T12:15:11.786Z,93765.83
2018-03-04T12:17:40.963Z,93769.59
2018-03-04T12:20:12.120Z,93766.42
2018-03-04T12:22:41.304Z,93766.98
2018-03-04T12:25:12.128Z,93759.75
2018-03-04T12:27:41.322Z,93746.83
2018-03-04T12:30:10.519Z,93747.02
2018-03-04T12:32:40.763Z,93740.20
2018-03-04T12:35:09.963Z,93743.72
2018-03-04T12:37:39.170Z,93738.38
2018-03-04T12:40:08.620Z,93738.56
2018-03-04T12:45:13.147Z,93731.13
2018-03-04T12:47:42.459Z,93729.03
2018-03-04T12:50:11.678Z,93728.61
2018-03-04T12:52:40.823Z,93729.70
2018-03-04T12:55:10.040Z,93728.37
2018-03-04T12:57:39.268Z,93727.19
2018-03-04T13:00:08.443Z,93724.53
2018-03-04T13:02:37.664Z,93720.36
2018-03-04T13:05:06.827Z,93721.27
2018-03-04T13:07:46.303Z,93721.59
2018-03-04T13:10:16.051Z,93715.59
2018-03-04T13:12:45.272Z,93716.31
2018-03-04T13:15:14.471Z,93718.88
2018-03-04T13:17:44.538Z,93715.38
2018-03-04T13:20:13.739Z,93717.23
2018-03-04T13:22:42.895Z,93714.56
2018-03-04T13:25:12.128Z,93719.06
2018-03-04T13:27:41.310Z,93716.73
2018-03-04T13:30:14.081Z,93713.75
2018-03-04T13:32:43.283Z,93712.14
2018-03-04T13:35:12.465Z,93706.00
2018-03-04T13:37:41.624Z,93702.61
2018-03-04T13:40:10.795Z,93698.22
2018-03-04T13:42:39.957Z,93694.87
2018-03-04T13:45:09.106Z,93696.97
2018-03-04T13:47:38.512Z,93700.66
2018-03-04T13:50:07.800Z,93703.07
2018-03-04T13:52:37.010Z,93697.51
2018-03-04T13:55:06.262Z,93699.03
2018-03-04T13:57:35.411Z,93695.45
2018-03-04T14:02:43.307Z,93686.45
2018-03-04T14:07:47.805Z,93684.46
2018-03-04T14:10:17.011Z,93683.72
2018-03-04T14:12:46.175Z,93692.37
2018-03-04T14:15:15.991Z,93687.65
2018-03-04T14:17:45.144Z,93683.47
2018-03-04T14:20:14.433Z,93677.86
2018-03-04T14:22:43.626Z,93675.55
2018-03-04T14:25:13.745Z,93681.56
2018-03-04T14:27:42.910Z,93682.92
2018-03-04T14:30:12.105Z,93676.38
2018-03-04T14:32:45.599Z,93676.56
2018-03-04T14:35:15.117Z,93670.25
2018-03-04T14:37:44.343Z,93660.50
2018-03-04T14:42:48.818Z,93649.05
2018-03-04T14:45:18.575Z,93643.26
2018-03-04T14:47:48.008Z,93641.14
2018-03-04T14:50:17.371Z,93643.96
2018-03-04T14:52:47.426Z,93652.23
2018-03-04T14:55:16.713Z,93641.12
2018-03-04T14:57:46.114Z,93640.78
2018-03-04T15:00:15.562Z,93639.65
2018-03-04T15:02:44.787Z,93638.75
2018-03-04T15:05:15.244Z,93630.86
2018-03-04T15:07:44.657Z,93634.02
2018-03-04T15:10:14.282Z,93633.17
2018-03-04T15:12:43.504Z,93633.20
2018-03-04T15:15:12.666Z,93619.38
2018-03-04T15:17:41.823Z,93622.89
2018-03-04T15:22:46.484Z,93610.89
2018-03-04T15:25:15.967Z,93617.44
2018-03-04T15:27:45.299Z,93617.73
2018-03-04T15:30:15.679Z,93615.86
2018-03-04T15:32:45.172Z,93618.85
2018-03-04T15:35:14.749Z,93627.00
2018-03-04T15:37:44.887Z,93620.34
2018-03-04T15:40:14.324Z,93617.52
2018-03-04T15:42:43.517Z,93614.02
2018-03-04T15:45:12.793Z,93607.53
2018-03-04T15:47:42.883Z,93609.62
2018-03-04T15:50:12.126Z,93617.88
2018-03-04T15:52:41.284Z,93617.79
2018-03-04T15:55:11.432Z,93623.29
2018-03-04T15:57:40.663Z,93627.15
2018-03-04T16:00:09.952Z,93625.67
2018-03-04T16:02:39.132Z,93623.43
2018-03-04T16:05:08.342Z,93624.86
2018-03-04T16:07:37.544Z,93630.72
2018-03-04T16:10:06.799Z,93635.04
2018-03-04T16:12:35.968Z,93642.80
2018-03-04T16:15:05.176Z,93641.87
2018-03-04T16:17:34.387Z,93643.80
2018-03-04T16:20:13.501Z,93645.66
2018-03-04T16:22:42.656Z,93646.16
2018-03-04T16:25:11.924Z,93642.41
2018-03-04T16:27:41.183Z,93643.48
2018-03-04T16:30:10.477Z,93643.83
2018-03-04T16:32:39.685Z,93640.47
2018-03-04T16:35:09.157Z,93630.81
2018-03-04T16:37:38.371Z,93629.23
2018-03-04T16:40:07.720Z,93627.69
2018-03-04T16:42:36.981Z,93638.56
2018-03-04T16:47:41.567Z,93628.69
2018-03-04T16:50:12.605Z,93625.45
2018-03-04T16:52:41.973Z,93626.12
2018-03-04T16:55:16.517Z,93621.22
2018-03-04T16:57:50.109Z,93615.70
2018-03-04T17:00:19.323Z,93616.20
2018-03-04T17:02:52.071Z,93614.34
2018-03-04T17:05:21.294Z,93612.68
2018-03-04T17:07:51.428Z,93618.31
2018-03-04T17:10:20.835Z,93623.88
2018-03-04T17:13:07.759Z,93620.21
2018-03-04T17:15:37.105Z,93615.09
2018-03-04T17:20:55.584Z,93623.87
2018-03-04T17:23:35.731Z,93634.80
2018-03-04T17:28:43.175Z,93627.81
2018-03-04T17:31:14.585Z,93623.81
2018-03-04T17:36:18.988Z,93631.28
2018-03-04T17:41:24.355Z,93632.53
2018-03-04T17:46:28.871Z,93623.98
2018-03-04T17:49:08.940Z,93626.63
2018-03-04T17:51:59.781Z,93631.48
2018-03-04T17:57:12.311Z,93621.02
2018-03-04T17:59:56.943Z,93614.72
2018-03-04T18:02:26.303Z,93617.93
2018-03-04T18:07:34.760Z,93612.38
2018-03-04T18:12:50.925Z,93611.45
2018-03-04T18:15:21.165Z,93606.99
2018-03-04T18:20:25.706Z,93603.41
2018-03-04T18:22:55.748Z,93598.72
2018-03-04T18:25:25.278Z,93598.72
2018-03-04T18:27:54.491Z,93607.85
2018-03-04T18:30:23.703Z,93605.72
2018-03-04T18:32:52.970Z,93605.55
2018-03-04T18:35:22.733Z,93605.74
2018-03-04T18:37:51.904Z,93608.04
2018-03-04T18:40:22.045Z,93609.23
2018-03-04T18:42:52.243Z,93607.27
2018-03-04T18:45:22.366Z,93603.20
2018-03-04T18:47:51.585Z,93604.73
2018-03-04T18:50:21.861Z,93604.90
2018-03-04T18:52:56.666Z,93602.20
2018-03-04T18:55:26.844Z,93599.84
2018-03-04T18:57:59.922Z,93592.53
2018-03-04T19:00:29.132Z,93593.70
2018-03-04T19:03:05.697Z,93592.14
2018-03-04T19:08:11.032Z,93586.16
2018-03-04T19:10:42.139Z,93575.45
2018-03-04T19:13:11.376Z,93570.49
2018-03-04T19:15:48.807Z,93577.91
2018-03-04T19:18:18.136Z,93570.92
2018-03-04T19:20:54.999Z,93570.73
2018-03-04T19:23:24.317Z,93566.66
2018-03-04T19:28:44.555Z,93567.63
2018-03-04T19:31:13.789Z,93562.08
2018-03-04T19:33:48.695Z,93563.48
2018-03-04T19:36:17.965Z,93563.72
2018-03-04T19:38:52.189Z,93569.32
2018-03-04T19:41:21.470Z,93569.83
2018-03-04T19:43:56.451Z,93569.85
2018-03-04T19:46:26.566Z,93575.22
2018-03-04T19:48:55.866Z,93575.25
2018-03-04T19:51:33.876Z,93580.79
2018-03-04T19:57:01.191Z,93581.15
2018-03-04T19:59:30.801Z,93585.45
2018-03-04T20:02:11.074Z,93581.93
2018-03-04T20:04:40.289Z,93581.19
2018-03-04T20:09:49.675Z,93583.94
2018-03-04T20:12:19.230Z,93581.36
2018-03-04T20:14:51.960Z,93583.79
2018-03-04T20:17:21.158Z,93592.51
2018-03-04T20:19:50.771Z,93586.31
2018-03-04T20:22:20.089Z,93588.81
2018-03-04T20:24:50.721Z,93579.80
2018-03-04T20:27:20.726Z,93580.92
2018-03-04T20:32:26.328Z,93580.84
2018-03-04T20:35:00.506Z,93580.59
2018-03-04T20:37:30.951Z,93580.55
2018-03-04T20:40:01.847Z,93578.13
2018-03-04T20:42:51.156Z,93580.01
2018-03-04T20:45:20.503Z,93579.95
2018-03-04T20:47:50.754Z,93580.37
2018-03-04T20:50:24.067Z,93585.73
2018-03-04T20:53:06.262Z,93584.72
2018-03-04T20:55:35.443Z,93591.09
2018-03-04T20:58:06.017Z,93587.42
2018-03-04T21:00:35.559Z,93584.55
2018-03-04T21:05:47.902Z,93584.65
2018-03-04T21:08:17.151Z,93586.13
2018-03-04T21:10:46.369Z,93581.07
2018-03-04T21:13:15.507Z,93577.18
2018-03-04T21:15:58.620Z,93569.38
2018-03-04T21:18:30.166Z,93569.04
2018-03-04T21:20:59.316Z,93571.90
2018-03-04T21:23:28.494Z,93568.98
2018-03-04T21:25:57.824Z,93575.19
2018-03-04T21:28:27.160Z,93575.34
2018-03-04T21:30:56.978Z,93571.75
2018-03-04T21:33:26.178Z,93576.53
2018-03-04T21:35:55.466Z,93575.14
2018-03-04T21:38:24.944Z,93581.73
2018-03-04T21:40:54.392Z,93580.16
2018-03-04T21:43:23.601Z,93583.45
2018-03-04T21:45:52.890Z,93583.66
2018-03-04T21:48:22.200Z,93586.34
2018-03-04T21:50:52.524Z,93585.92
2018-03-04T21:53:21.823Z,93586.41
2018-03-04T21:55:51.012Z,93586.68
2018-03-04T21:58:20.175Z,93588.09
2018-03-04T22:00:49.592Z,93593.31
2018-03-04T22:03:18.872Z,93596.46
2018-03-04T22:05:48.191Z,93603.02
2018-03-04T22:08:17.385Z,93600.24
2018-03-04T22:10:46.600Z,93600.05
2018-03-04T22:13:15.992Z,93603.20
2018-03-04T22:15:45.166Z,93607.92
2018-03-04T22:18:14.330Z,93613.39
2018-03-04T22:20:43.646Z,93619.15
2018-03-04T22:23:13.183Z,93623.83
2018-03-04T22:25:42.351Z,93633.02
2018-03-04T22:28:11.766Z,93626.89
2018-03-04T22:30:41.028Z,93630.48
2018-03-04T22:33:10.200Z,93630.59
2018-03-04T22:35:39.520Z,93642.53
2018-03-04T22:38:08.709Z,93649.56
2018-03-04T22:40:40.872Z,93651.77
2018-03-04T22:43:10.069Z,93663.91
2018-03-04T22:45:39.459Z,93678.36
2018-03-04T22:48:08.650Z,93691.41
2018-03-04T22:50:37.907Z,93704.20
2018-03-04T22:53:07.393Z,93703.33
2018-03-04T22:55:36.585Z,93712.75
2018-03-04T22:58:05.960Z,93690.77
2018-03-04T23:00:40.145Z,93711.18
2018-03-04T23:05:50.172Z,93728.78
2018-03-04T23:08:22.781Z,93730.22
2018-03-04T23:10:55.227Z,93729.87
2018-03-04T23:13:27.941Z,93728.95
2018-03-04T23:16:02.472Z,93727.33
2018-03-04T23:18:34.045Z,93721.49
2018-03-04T23:21:06.802Z,93722.93
2018-03-04T23:23:41.470Z,93727.77
2018-03-04T23:26:13.547Z,93733.97
2018-03-04T23:28:48.254Z,93731.05
2018-03-04T23:31:21.869Z,93741.18
2018-03-04T23:34:01.466Z,93740.88
2018-03-04T23:36:32.445Z,93735.57
2018-03-04T23:41:44.626Z,93739.88
2018-03-04T23:44:19.440Z,93747.77
2018-03-04T23:47:06.363Z,93741.95
2018-03-04T23:49:40.478Z,93744.86
2018-03-04T23:52:19.761Z,93747.78
2018-03-04T23:54:57.668Z,93744.24
2018-03-04T23:57:26.901Z,93743.23
